createdAt,value
2018-11-11T00:04:05.961Z,99789.97
2018-11-11T00:12:26.956Z,99806.13
2018-11-11T00:20:47.958Z,99783.88
2018-11-11T00:29:08.941Z,99803.38
2018-11-11T00:37:30.139Z,99792.36
2018-11-11T00:45:51.134Z,99803.08
2018-11-11T00:54:12.125Z,99777.66
2018-11-11T01:02:33.148Z,99795.56
2018-11-11T01:10:54.232Z,99799.47
2018-11-11T01:19:15.252Z,99810.35
2018-11-11T01:27:36.271Z,99832.13
2018-11-11T01:35:57.365Z,99838.30
2018-11-11T01:44:18.384Z,99837.12
2018-11-11T01:52:39.388Z,99847.25
2018-11-11T02:01:00.408Z,99826.50
2018-11-11T02:09:21.430Z,99815.52
2018-11-11T02:17:42.489Z,99804.47
2018-11-11T02:26:03.511Z,99811.22
2018-11-11T02:34:24.513Z,99819.69
2018-11-11T02:42:45.521Z,99809.75
2018-11-11T02:51:06.520Z,99804.61
2018-11-11T02:59:27.597Z,99811.09
2018-11-11T03:07:48.579Z,99809.98
2018-11-11T03:16:09.617Z,99801.14
2018-11-11T03:24:30.640Z,99805.03
2018-11-11T03:32:51.641Z,99806.95
2018-11-11T03:41:12.660Z,99808.13
2018-11-11T03:49:33.680Z,99808.27
2018-11-11T03:57:54.694Z,99796.09
2018-11-11T04:06:15.697Z,99803.32
2018-11-11T04:14:36.674Z,99802.27
2018-11-11T04:22:57.650Z,99790.14
2018-11-11T04:31:18.646Z,99814.77
2018-11-11T04:39:39.650Z,99817.39
2018-11-11T04:48:00.645Z,99820.97
2018-11-11T04:56:21.644Z,99819.22
2018-11-11T05:04:43.759Z,99817.13
2018-11-11T05:13:04.690Z,99813.17
2018-11-11T05:21:25.665Z,99823.98
2018-11-11T05:29:46.705Z,99838.26
2018-11-11T05:38:07.721Z,99833.55
2018-11-11T05:46:28.721Z,99833.92
2018-11-11T05:54:49.724Z,99835.11
2018-11-11T06:03:10.725Z,99844.38
2018-11-11T06:11:31.725Z,99849.52
2018-11-11T06:19:52.707Z,99850.45
2018-11-11T06:28:13.681Z,99849.87
2018-11-11T06:36:34.699Z,99862.92
2018-11-11T06:44:55.703Z,99858.30
2018-11-11T06:53:16.755Z,99860.02
2018-11-11T07:01:37.806Z,99866.11
2018-11-11T07:09:58.802Z,99873.73
2018-11-11T07:18:19.916Z,99878.78
2018-11-11T07:26:40.914Z,99893.78
2018-11-11T07:35:01.986Z,99911.25
2018-11-11T07:43:23.003Z,99916.34
2018-11-11T07:51:44.058Z,99933.12
2018-11-11T08:00:05.072Z,99941.27
2018-11-11T08:08:26.097Z,99940.41
2018-11-11T08:16:47.194Z,99953.47
2018-11-11T08:25:08.133Z,99957.38
2018-11-11T08:33:30.009Z,99968.25
2018-11-11T08:41:51.039Z,99973.80
2018-11-11T08:50:12.018Z,99981.31
2018-11-11T08:58:33.045Z,99986.45
2018-11-11T09:06:54.116Z,99994.00
2018-11-11T09:15:15.164Z,100009.42
2018-11-11T09:23:36.229Z,100009.86
2018-11-11T09:31:57.221Z,100019.66
2018-11-11T09:40:18.230Z,100028.71
2018-11-11T09:48:39.229Z,100022.23
2018-11-11T09:57:00.240Z,100017.20
2018-11-11T10:05:21.264Z,100009.18
2018-11-11T10:13:42.255Z,100034.34
2018-11-11T10:22:03.258Z,100031.32
2018-11-11T10:30:24.337Z,100018.05
2018-11-11T10:38:45.365Z,100020.72
2018-11-11T10:47:06.351Z,100029.73
2018-11-11T10:55:27.369Z,100040.35
2018-11-11T11:03:48.413Z,100060.78
2018-11-11T11:12:09.444Z,100076.29
2018-11-11T11:20:30.445Z,100075.83
2018-11-11T11:28:51.446Z,100076.41
2018-11-11T11:37:12.497Z,100096.25
2018-11-11T11:45:33.501Z,100114.23
2018-11-11T11:53:54.576Z,100113.14
2018-11-11T12:02:15.724Z,100095.58
2018-11-11T12:10:36.614Z,100105.47
2018-11-11T12:18:57.633Z,100105.51
2018-11-11T12:27:18.615Z,100097.16
2018-11-11T12:35:39.693Z,100091.81
2018-11-11T12:44:00.702Z,100102.48
2018-11-11T12:52:21.702Z,100109.41
2018-11-11T13:00:42.786Z,100114.87
2018-11-11T13:09:03.718Z,100109.48
2018-11-11T13:17:24.706Z,100122.39
2018-11-11T13:25:45.724Z,100129.95
2018-11-11T13:34:06.733Z,100138.16
2018-11-11T13:42:27.753Z,100148.42
2018-11-11T13:50:48.761Z,100154.52
2018-11-11T13:59:09.765Z,100172.98
2018-11-11T14:07:30.767Z,100179.92
2018-11-11T14:15:51.779Z,100168.55
2018-11-11T14:24:12.779Z,100173.20
2018-11-11T14:32:33.894Z,100170.21
2018-11-11T14:40:54.890Z,100195.41
2018-11-11T14:49:15.897Z,100203.06
2018-11-11T14:57:36.909Z,100234.84
2018-11-11T15:05:57.928Z,100224.66
2018-11-11T15:14:18.935Z,100235.48
2018-11-11T15:22:39.942Z,100217.07
2018-11-11T15:31:01.080Z,100229.16
2018-11-11T15:39:21.997Z,100216.66
2018-11-11T15:47:43.007Z,100222.52
2018-11-11T15:56:04.032Z,100221.08
2018-11-11T16:04:25.033Z,100240.51
2018-11-11T16:12:46.176Z,100241.80
2018-11-11T16:21:07.266Z,100250.61
2018-11-11T16:29:28.482Z,100243.10
2018-11-11T16:37:49.465Z,100254.91
2018-11-11T16:46:10.520Z,100223.87
2018-11-11T16:54:31.594Z,100251.38
2018-11-11T17:02:52.614Z,100247.98
2018-11-11T17:11:13.618Z,100247.19
2018-11-11T17:19:34.621Z,100248.21
2018-11-11T17:27:55.723Z,100265.48
2018-11-11T17:36:16.646Z,100278.05
2018-11-11T17:44:37.737Z,100297.02
2018-11-11T17:52:58.802Z,100322.08
2018-11-11T18:01:19.783Z,100321.73
2018-11-11T18:09:40.784Z,100317.86
2018-11-11T18:18:01.819Z,100327.53
2018-11-11T18:26:22.907Z,100326.78
2018-11-11T18:34:43.867Z,100332.11
2018-11-11T18:43:04.888Z,100339.99
2018-11-11T18:51:26.005Z,100300.63
2018-11-11T18:59:47.273Z,100307.89
2018-11-11T19:08:08.296Z,100365.63
2018-11-11T19:16:29.441Z,100365.77
2018-11-11T19:24:50.605Z,100404.38
2018-11-11T19:33:11.835Z,100420.52
2018-11-11T19:41:32.940Z,100421.42
2018-11-11T19:49:53.913Z,100431.56
2018-11-11T19:58:14.949Z,100443.91
2018-11-11T20:06:36.012Z,100458.70
2018-11-11T20:14:57.032Z,100444.84
2018-11-11T20:23:18.053Z,100462.38
2018-11-11T20:31:39.206Z,100464.35
2018-11-11T20:40:00.098Z,100521.27
2018-11-11T20:48:21.105Z,100529.19
2018-11-11T20:56:42.245Z,100520.60
2018-11-11T21:05:03.240Z,100538.97
2018-11-11T21:13:24.376Z,100515.17
2018-11-11T21:21:45.420Z,100500.33
2018-11-11T21:30:06.421Z,100526.55
2018-11-11T21:38:27.519Z,100548.59
2018-11-11T21:46:48.555Z,100543.84
2018-11-11T21:55:09.584Z,100550.89
2018-11-11T22:03:30.615Z,100569.13
2018-11-11T22:11:51.619Z,100570.45
2018-11-11T22:20:12.646Z,100575.61
2018-11-11T22:28:33.675Z,100585.67
2018-11-11T22:36:54.654Z,100611.72
2018-11-11T22:45:15.649Z,100616.05
2018-11-11T22:53:36.674Z,100622.12
2018-11-11T23:01:57.658Z,100646.62
2018-11-11T23:10:18.640Z,100648.26
2018-11-11T23:18:39.672Z,100643.04
2018-11-11T23:27:00.675Z,100644.49
2018-11-11T23:35:21.711Z,100667.37
2018-11-11T23:43:42.719Z,100650.55
2018-11-11T23:52:03.708Z,100640.57
